Fairbanks International Airport (FAI)

 

Airport Diagram
Current Weather/Forecast (VFR Conditions)
METAR PAFA 312153Z 00000KT 10SM FEW070 BKN200 M20/M23 A2891 RMK AO2 SLP804 T12001233
TAF PAFA 311720Z 3118/0124 VRB03KT P6SM BKN070 FM010900 00000KT P6SM BKN030 FM011400 VRB02KT 4SM -SN OVC007 FM011800 VRB02KT P6SM OVC019

All Charts

Inbound Traffic (Arrivals)

No inbound traffic.


Outbound Traffic (Departures)

No outbound traffic.